Terminal Aerodrome Forecast
Issued by NWS

Home | Current Version | Previous Version | Graphics & Text | Print | Product List | Glossary On
Versions: 1 2 3 4 5 6 7 8 9 10 11 12 13 14 15 16 17 18 19 20
000
FTUS43 KICT 272041 AAA
TAFHUT
TAF AMD
KHUT 272041Z 2721/2818 14012KT P6SM VCSH OVC080
     FM280100 11010KT P6SM VCSH BKN040
     FM280900 11008KT P6SM VCSH BKN010
     FM281500 27006KT P6SM BKN035=

USA.gov is the U.S. government's official web portal to all federal, state and local government web resources and services.